Time;durP1;ratioP1;P1;durP2;ratioP2;P2;SDS_P1;SDS_P2;PMS_P1;PMS_P2;Temp;Humidity;BMP_temperature;BMP_pressure;BME280_temperature;BME280_humidity;BME280_pressure;Samples;Min_cycle;Max_cycle;Signal;HPM_P1;HPM_P2
2022/08/14 00:02:18;;;;;;;9.50;7.75;;;;;;;;;;5029578;28;20491;-65
2022/08/14 00:04:44;;;;;;;9.25;7.40;;;;;;;;;;5031922;28;20037;-64
2022/08/14 00:07:11;;;;;;;9.02;8.13;;;;;;;;;;5017015;28;20041;-64
2022/08/14 00:09:37;;;;;;;8.98;7.93;;;;;;;;;;5033204;28;20364;-64
2022/08/14 00:12:05;;;;;;;9.10;8.02;;;;;;;;;;5012061;28;20076;-64
2022/08/14 00:14:31;;;;;;;9.02;7.70;;;;;;;;;;5020884;28;20049;-64
2022/08/14 00:16:57;;;;;;;9.15;8.13;;;;;;;;;;5016682;28;20436;-65
2022/08/14 00:19:23;;;;;;;12.55;8.35;;;;;;;;;;5035984;28;20034;-64
2022/08/14 00:21:50;;;;;;;11.40;8.95;;;;;;;;;;5032582;28;20095;-65
2022/08/14 00:24:16;;;;;;;8.98;8.07;;;;;;;;;;5032726;28;20393;-64
2022/08/14 00:26:42;;;;;;;9.68;7.57;;;;;;;;;;5033725;28;20080;-64
2022/08/14 00:29:08;;;;;;;9.45;8.18;;;;;;;;;;5033012;28;20083;-64
2022/08/14 00:31:35;;;;;;;8.65;7.75;;;;;;;;;;5041374;28;20041;-64
2022/08/14 00:34:01;;;;;;;9.75;8.20;;;;;;;;;;5033757;28;20041;-65
2022/08/14 00:36:28;;;;;;;9.27;8.38;;;;;;;;;;5020799;28;20041;-65
2022/08/14 00:38:54;;;;;;;9.30;8.25;;;;;;;;;;5035594;28;20036;-65
2022/08/14 00:41:20;;;;;;;9.98;8.70;;;;;;;;;;5035053;28;20029;-64
2022/08/14 00:43:46;;;;;;;9.57;8.48;;;;;;;;;;5035133;28;20041;-64
2022/08/14 00:46:13;;;;;;;11.60;9.27;;;;;;;;;;5038156;28;20033;-64
2022/08/14 00:48:39;;;;;;;11.15;9.00;;;;;;;;;;5032158;28;20037;-64
2022/08/14 00:51:07;;;;;;;9.75;8.75;;;;;;;;;;5033681;28;20045;-65
2022/08/14 00:53:35;;;;;;;11.18;9.13;;;;;;;;;;5031677;28;20033;-65
2022/08/14 00:56:01;;;;;;;11.05;9.20;;;;;;;;;;5034681;28;20459;-64
2022/08/14 00:58:30;;;;;;;12.85;9.50;;;;;;;;;;5015462;28;20085;-66
2022/08/14 01:01:00;;;;;;;11.60;9.25;;;;;;;;;;5028864;28;20120;-65
2022/08/14 01:03:30;;;;;;;9.80;8.75;;;;;;;;;;5019089;28;20090;-64
2022/08/14 01:05:57;;;;;;;10.30;8.73;;;;;;;;;;5033481;28;20495;-64
2022/08/14 01:08:28;;;;;;;9.98;8.77;;;;;;;;;;5010894;28;20049;-64
2022/08/14 01:10:54;;;;;;;11.45;8.88;;;;;;;;;;5012800;28;20060;-64
2022/08/14 01:13:26;;;;;;;10.48;9.25;;;;;;;;;;5013568;28;20041;-64
2022/08/14 01:15:54;;;;;;;10.02;9.02;;;;;;;;;;5029955;28;20049;-64
2022/08/14 01:21:07;;;;;;;11.27;9.25;;;;;;;;;;5029656;28;20041;-64
2022/08/14 01:23:34;;;;;;;10.25;9.18;;;;;;;;;;5029939;28;20506;-64
2022/08/14 01:26:00;;;;;;;9.70;8.52;;;;;;;;;;5031954;28;20040;-64
2022/08/14 01:28:26;;;;;;;12.38;8.40;;;;;;;;;;5032707;28;20045;-65
2022/08/14 01:30:56;;;;;;;10.90;8.75;;;;;;;;;;5025479;28;20045;-64
2022/08/14 01:33:27;;;;;;;11.05;8.90;;;;;;;;;;5031011;28;20049;-64
2022/08/14 01:35:53;;;;;;;10.93;8.73;;;;;;;;;;5032791;28;20045;-64
2022/08/14 01:38:19;;;;;;;9.40;8.48;;;;;;;;;;5030853;28;20038;-64
2022/08/14 01:40:46;;;;;;;9.80;8.80;;;;;;;;;;5031646;28;20046;-64
2022/08/14 01:43:16;;;;;;;12.20;8.82;;;;;;;;;;5031082;28;20541;-64
2022/08/14 01:45:43;;;;;;;10.48;8.50;;;;;;;;;;5031351;28;20034;-64
2022/08/14 01:48:09;;;;;;;9.52;8.55;;;;;;;;;;5012857;28;20037;-64
2022/08/14 01:50:35;;;;;;;10.38;9.38;;;;;;;;;;5013042;28;20053;-64
2022/08/14 01:53:02;;;;;;;11.65;9.38;;;;;;;;;;5028304;28;20044;-64
2022/08/14 01:55:30;;;;;;;11.38;9.10;;;;;;;;;;5030647;28;20513;-65
2022/08/14 01:57:56;;;;;;;10.23;9.13;;;;;;;;;;5031440;28;20080;-64
2022/08/14 02:00:22;;;;;;;9.80;8.80;;;;;;;;;;5026271;28;20501;-64
2022/08/14 02:02:48;;;;;;;11.15;9.77;;;;;;;;;;5029161;28;20403;-64
2022/08/14 02:05:14;;;;;;;10.70;9.30;;;;;;;;;;5028450;28;20030;-64
2022/08/14 02:07:42;;;;;;;13.35;9.50;;;;;;;;;;5035571;28;20060;-64
2022/08/14 02:10:09;;;;;;;10.60;9.25;;;;;;;;;;5022638;28;20041;-65
2022/08/14 02:12:35;;;;;;;11.02;9.73;;;;;;;;;;5001718;28;20046;-64
2022/08/14 02:15:02;;;;;;;10.50;9.40;;;;;;;;;;5025725;28;20035;-64
2022/08/14 02:17:28;;;;;;;10.95;9.77;;;;;;;;;;5030773;28;20037;-64
2022/08/14 02:19:54;;;;;;;11.75;10.18;;;;;;;;;;5029717;28;20044;-65
2022/08/14 02:22:20;;;;;;;11.43;9.50;;;;;;;;;;5019167;28;20434;-65
2022/08/14 02:24:46;;;;;;;11.98;8.98;;;;;;;;;;5030295;28;20468;-64
2022/08/14 02:27:13;;;;;;;11.93;9.70;;;;;;;;;;5020971;28;20495;-64
2022/08/14 02:29:42;;;;;;;11.43;9.48;;;;;;;;;;5020308;28;20037;-64
2022/08/14 02:32:09;;;;;;;11.73;9.35;;;;;;;;;;5037538;28;20044;-64
2022/08/14 02:34:37;;;;;;;12.23;9.07;;;;;;;;;;5030091;28;20041;-64
2022/08/14 02:37:12;;;;;;;14.82;10.35;;;;;;;;;;5031023;28;20037;-64
2022/08/14 02:39:40;;;;;;;13.57;9.50;;;;;;;;;;5011875;28;20041;-64
2022/08/14 02:42:11;;;;;;;12.95;10.05;;;;;;;;;;5028043;28;20164;-64
2022/08/14 02:44:38;;;;;;;10.30;9.30;;;;;;;;;;5004866;28;20137;-64
2022/08/14 02:47:04;;;;;;;12.15;10.18;;;;;;;;;;5031352;28;20064;-64
2022/08/14 02:49:30;;;;;;;13.40;10.13;;;;;;;;;;4993515;28;1076634;-64
2022/08/14 02:51:57;;;;;;;13.07;10.50;;;;;;;;;;5024335;28;20069;-65
2022/08/14 02:54:25;;;;;;;13.50;10.23;;;;;;;;;;5012126;28;20041;-64
2022/08/14 02:56:53;;;;;;;12.70;10.30;;;;;;;;;;5013234;28;20490;-64
2022/08/14 02:59:19;;;;;;;12.50;10.60;;;;;;;;;;5011531;28;20072;-64
2022/08/14 03:01:46;;;;;;;11.88;9.68;;;;;;;;;;5032100;28;20034;-64
2022/08/14 03:04:12;;;;;;;12.43;10.65;;;;;;;;;;5022625;28;20099;-66
2022/08/14 03:06:42;;;;;;;14.50;10.68;;;;;;;;;;5031431;28;20034;-64
2022/08/14 03:09:08;;;;;;;11.93;10.63;;;;;;;;;;5032335;28;20080;-64
2022/08/14 03:11:34;;;;;;;13.65;10.57;;;;;;;;;;5043945;28;20030;-64
2022/08/14 03:14:00;;;;;;;12.00;10.27;;;;;;;;;;5030000;28;20048;-64
2022/08/14 03:16:30;;;;;;;12.98;11.05;;;;;;;;;;5022584;28;20160;-65
2022/08/14 03:18:59;;;;;;;11.95;10.73;;;;;;;;;;5039199;28;20041;-65
2022/08/14 03:21:25;;;;;;;12.48;10.32;;;;;;;;;;5030018;28;20465;-65
2022/08/14 03:24:11;;;;;;;13.35;10.68;;;;;;;;;;5031635;28;20521;-65
2022/08/14 03:26:38;;;;;;;11.45;10.35;;;;;;;;;;5026588;28;20041;-65
2022/08/14 03:29:05;;;;;;;14.40;10.77;;;;;;;;;;5032588;28;20033;-64
2022/08/14 03:31:31;;;;;;;16.05;11.73;;;;;;;;;;5027951;28;20034;-65
2022/08/14 03:33:57;;;;;;;12.18;10.60;;;;;;;;;;5011018;28;20075;-64
2022/08/14 03:36:24;;;;;;;16.10;10.73;;;;;;;;;;5030493;28;20502;-64
2022/08/14 03:38:52;;;;;;;12.70;10.48;;;;;;;;;;5024706;28;20045;-64
2022/08/14 03:41:18;;;;;;;13.15;10.98;;;;;;;;;;5032880;28;20112;-64
2022/08/14 03:43:45;;;;;;;12.18;10.10;;;;;;;;;;5035270;28;20180;-64
2022/08/14 03:46:12;;;;;;;10.98;9.73;;;;;;;;;;5033926;28;20033;-64
2022/08/14 03:48:38;;;;;;;13.13;10.80;;;;;;;;;;5052079;22;20071;-64
2022/08/14 03:51:07;;;;;;;11.90;9.65;;;;;;;;;;5053342;28;20033;-64
2022/08/14 03:53:37;;;;;;;12.35;9.90;;;;;;;;;;5053428;28;20624;-64
2022/08/14 03:56:06;;;;;;;11.27;9.75;;;;;;;;;;5049364;28;20041;-64
2022/08/14 03:58:32;;;;;;;10.77;9.23;;;;;;;;;;5045190;28;20561;-64
2022/08/14 04:00:59;;;;;;;11.88;9.40;;;;;;;;;;5051470;28;20043;-64
2022/08/14 04:03:25;;;;;;;10.73;9.32;;;;;;;;;;5049440;28;20398;-64
2022/08/14 04:05:51;;;;;;;12.90;9.70;;;;;;;;;;5052261;28;20383;-64
2022/08/14 04:08:17;;;;;;;13.73;10.38;;;;;;;;;;5052376;28;20041;-64
2022/08/14 04:10:45;;;;;;;11.88;10.02;;;;;;;;;;5050895;28;20083;-64
2022/08/14 04:13:11;;;;;;;11.77;9.40;;;;;;;;;;5047398;28;20054;-64
2022/08/14 04:15:37;;;;;;;12.18;9.90;;;;;;;;;;5052716;28;20044;-64
2022/08/14 04:18:07;;;;;;;13.20;10.52;;;;;;;;;;5054214;28;20037;-64
2022/08/14 04:20:36;;;;;;;14.47;10.63;;;;;;;;;;5044647;28;20047;-64
2022/08/14 04:23:04;;;;;;;12.60;10.40;;;;;;;;;;5049253;28;20454;-64
2022/08/14 04:25:32;;;;;;;13.57;9.90;;;;;;;;;;5052803;28;20029;-64
2022/08/14 04:27:59;;;;;;;12.68;9.88;;;;;;;;;;5038817;28;20112;-64
2022/08/14 04:30:27;;;;;;;13.25;10.20;;;;;;;;;;5045586;28;20044;-64
2022/08/14 04:32:54;;;;;;;13.05;9.75;;;;;;;;;;5048413;28;20041;-64
2022/08/14 04:35:20;;;;;;;13.10;10.98;;;;;;;;;;5052879;28;20083;-64
2022/08/14 04:43:35;;;;;;;11.52;10.10;;;;;;;;;;5053243;28;20499;-64
2022/08/14 04:46:01;;;;;;;12.73;10.93;;;;;;;;;;5052998;28;20037;-64
2022/08/14 04:48:27;;;;;;;13.15;9.77;;;;;;;;;;5051370;28;20084;-64
2022/08/14 04:50:55;;;;;;;11.18;9.95;;;;;;;;;;5047870;28;20040;-64
2022/08/14 04:53:23;;;;;;;11.38;10.18;;;;;;;;;;5049118;28;20044;-64
2022/08/14 04:55:49;;;;;;;12.32;10.38;;;;;;;;;;5049502;28;20509;-64
2022/08/14 04:58:16;;;;;;;14.45;10.73;;;;;;;;;;5051209;28;20041;-64
2022/08/14 05:00:43;;;;;;;12.55;10.57;;;;;;;;;;5045858;28;20505;-64
2022/08/14 05:03:09;;;;;;;10.77;9.48;;;;;;;;;;5050108;28;20535;-64
2022/08/14 05:05:35;;;;;;;12.25;10.18;;;;;;;;;;5051344;28;20564;-64
2022/08/14 05:08:11;;;;;;;11.65;10.10;;;;;;;;;;5051802;28;20075;-64
2022/08/14 05:10:39;;;;;;;11.05;9.93;;;;;;;;;;5045000;28;20037;-64
2022/08/14 05:13:06;;;;;;;11.95;10.45;;;;;;;;;;5049273;28;20098;-64
2022/08/14 05:15:35;;;;;;;12.50;10.07;;;;;;;;;;5049635;28;20048;-64
2022/08/14 05:18:02;;;;;;;12.18;9.25;;;;;;;;;;5045749;28;20033;-64
2022/08/14 05:20:29;;;;;;;13.45;10.85;;;;;;;;;;5050192;28;20037;-64
2022/08/14 05:22:56;;;;;;;14.95;10.13;;;;;;;;;;5033241;28;20049;-64
2022/08/14 05:25:22;;;;;;;11.50;10.00;;;;;;;;;;5049687;28;20033;-62
2022/08/14 05:27:48;;;;;;;13.32;10.07;;;;;;;;;;5046789;28;20044;-63
2022/08/14 05:30:18;;;;;;;13.18;10.00;;;;;;;;;;5048653;28;20036;-63
2022/08/14 05:32:44;;;;;;;13.18;10.70;;;;;;;;;;5050351;28;20120;-62
2022/08/14 05:35:10;;;;;;;11.05;9.57;;;;;;;;;;5051873;28;20553;-63
2022/08/14 05:37:38;;;;;;;11.27;9.52;;;;;;;;;;5050747;28;20398;-62
2022/08/14 05:40:06;;;;;;;11.35;9.98;;;;;;;;;;5050704;28;20556;-62
2022/08/14 05:42:33;;;;;;;12.52;9.23;;;;;;;;;;5046238;28;20041;-63
2022/08/14 05:44:59;;;;;;;12.98;10.35;;;;;;;;;;5044013;28;20029;-62
2022/08/14 05:47:25;;;;;;;11.45;10.20;;;;;;;;;;5033700;28;20098;-62
2022/08/14 05:49:51;;;;;;;11.90;10.13;;;;;;;;;;5046189;28;20040;-63
2022/08/14 05:52:18;;;;;;;11.10;9.50;;;;;;;;;;5048005;28;20037;-62
2022/08/14 05:54:44;;;;;;;11.60;10.32;;;;;;;;;;5040768;28;20130;-63
2022/08/14 05:57:10;;;;;;;10.32;9.32;;;;;;;;;;5051402;28;20079;-62
2022/08/14 05:59:36;;;;;;;11.40;10.13;;;;;;;;;;5049679;28;20130;-62
2022/08/14 06:02:02;;;;;;;11.43;9.70;;;;;;;;;;5050333;28;20149;-62
2022/08/14 06:04:28;;;;;;;11.32;10.13;;;;;;;;;;5049026;28;20068;-62
2022/08/14 06:06:54;;;;;;;13.68;9.70;;;;;;;;;;5046230;28;20055;-62
2022/08/14 06:09:20;;;;;;;11.07;9.45;;;;;;;;;;5049115;28;20478;-62
2022/08/14 06:11:46;;;;;;;9.98;8.98;;;;;;;;;;5050443;28;20039;-62
2022/08/14 06:14:12;;;;;;;11.35;9.85;;;;;;;;;;5049553;28;20391;-62
2022/08/14 06:16:38;;;;;;;10.13;8.95;;;;;;;;;;5029522;28;20048;-62
2022/08/14 06:19:05;;;;;;;10.00;8.65;;;;;;;;;;5036033;28;20052;-62
2022/08/14 06:21:31;;;;;;;10.38;9.15;;;;;;;;;;5047993;28;20037;-62
2022/08/14 06:23:57;;;;;;;14.15;9.55;;;;;;;;;;5049853;28;20069;-62
2022/08/14 06:26:23;;;;;;;10.75;8.88;;;;;;;;;;5037736;28;20053;-62
2022/08/14 06:28:49;;;;;;;9.75;8.75;;;;;;;;;;5051384;28;20116;-62
2022/08/14 06:31:16;;;;;;;10.73;9.20;;;;;;;;;;5048630;28;20037;-62
2022/08/14 06:33:42;;;;;;;10.23;9.10;;;;;;;;;;5048134;28;20041;-62
2022/08/14 06:36:08;;;;;;;9.05;8.15;;;;;;;;;;5048643;28;20044;-63
2022/08/14 06:38:34;;;;;;;10.27;8.18;;;;;;;;;;5045238;28;20403;-63
2022/08/14 06:41:00;;;;;;;9.70;8.45;;;;;;;;;;5046430;28;20041;-62
2022/08/14 06:43:26;;;;;;;9.10;8.20;;;;;;;;;;5050899;28;20041;-62
2022/08/14 06:45:52;;;;;;;10.10;8.48;;;;;;;;;;5048802;28;20029;-63
2022/08/14 06:48:22;;;;;;;9.15;8.18;;;;;;;;;;5048607;28;20033;-62
2022/08/14 06:50:49;;;;;;;11.68;8.30;;;;;;;;;;5049190;28;20452;-62
2022/08/14 06:53:16;;;;;;;10.20;8.45;;;;;;;;;;5048769;28;20060;-62
2022/08/14 06:55:44;;;;;;;10.30;9.20;;;;;;;;;;5046974;28;20121;-63
2022/08/14 06:58:13;;;;;;;13.05;8.68;;;;;;;;;;5050463;28;20083;-63
2022/08/14 07:00:39;;;;;;;10.02;8.10;;;;;;;;;;5036582;28;20048;-62
2022/08/14 07:05:50;;;;;;;11.07;8.30;;;;;;;;;;5050494;28;20037;-63
2022/08/14 07:08:20;;;;;;;9.38;8.15;;;;;;;;;;5048152;28;20478;-62
2022/08/14 07:10:50;;;;;;;8.83;7.73;;;;;;;;;;5043340;28;20048;-62
2022/08/14 07:13:17;;;;;;;9.23;8.27;;;;;;;;;;5048130;28;20055;-63
2022/08/14 07:15:46;;;;;;;10.55;8.38;;;;;;;;;;5053296;28;20045;-63
2022/08/14 07:18:12;;;;;;;8.75;7.10;;;;;;;;;;5035321;28;20041;-62
2022/08/14 07:20:39;;;;;;;8.77;7.78;;;;;;;;;;5050540;28;20052;-63
2022/08/14 07:23:06;;;;;;;9.25;8.10;;;;;;;;;;5054897;28;20044;-63
2022/08/14 07:25:32;;;;;;;9.10;7.13;;;;;;;;;;5049255;28;20040;-63
2022/08/14 07:27:58;;;;;;;8.73;7.78;;;;;;;;;;5050367;28;20041;-63
2022/08/14 07:30:24;;;;;;;9.73;7.65;;;;;;;;;;5034923;28;20052;-63
2022/08/14 07:32:50;;;;;;;10.00;7.65;;;;;;;;;;5053673;28;20033;-63
2022/08/14 07:35:17;;;;;;;8.40;7.57;;;;;;;;;;5054269;28;20036;-63
2022/08/14 07:37:43;;;;;;;10.77;8.20;;;;;;;;;;5053508;28;20033;-63
2022/08/14 07:40:09;;;;;;;8.98;8.15;;;;;;;;;;5051904;28;20440;-62
2022/08/14 07:42:35;;;;;;;8.88;7.15;;;;;;;;;;5051305;28;20417;-63
2022/08/14 07:45:01;;;;;;;9.65;7.38;;;;;;;;;;5052666;28;20537;-63
2022/08/14 07:47:28;;;;;;;9.07;7.90;;;;;;;;;;5033366;28;20036;-63
2022/08/14 07:50:05;;;;;;;7.95;7.15;;;;;;;;;;5042905;28;20033;-63
2022/08/14 07:52:31;;;;;;;8.00;7.10;;;;;;;;;;5054437;28;20120;-63
2022/08/14 07:54:57;;;;;;;9.98;7.28;;;;;;;;;;5051209;28;20044;-63
2022/08/14 07:57:23;;;;;;;8.38;7.50;;;;;;;;;;5035827;28;20060;-63
2022/08/14 07:59:49;;;;;;;8.07;7.32;;;;;;;;;;5051639;28;20068;-63
2022/08/14 08:02:16;;;;;;;9.27;7.40;;;;;;;;;;5051974;28;20492;-63
2022/08/14 08:04:45;;;;;;;8.52;7.63;;;;;;;;;;5035915;28;20093;-63
2022/08/14 08:07:11;;;;;;;9.27;7.40;;;;;;;;;;5057496;28;20040;-63
2022/08/14 08:09:40;;;;;;;7.75;6.93;;;;;;;;;;5032033;28;20037;-63
2022/08/14 08:12:07;;;;;;;7.60;6.85;;;;;;;;;;5052128;28;20132;-63
2022/08/14 08:14:34;;;;;;;8.80;7.45;;;;;;;;;;5046131;28;20036;-63
2022/08/14 08:17:00;;;;;;;8.57;7.45;;;;;;;;;;5035876;28;20041;-63
2022/08/14 08:19:26;;;;;;;8.15;6.55;;;;;;;;;;5051909;28;20167;-63
2022/08/14 08:21:53;;;;;;;8.63;6.78;;;;;;;;;;5048089;28;20072;-63
2022/08/14 08:24:20;;;;;;;8.05;6.97;;;;;;;;;;5034938;28;20106;-63
2022/08/14 08:26:46;;;;;;;7.95;7.18;;;;;;;;;;5045741;28;20041;-62
2022/08/14 08:29:18;;;;;;;7.30;6.47;;;;;;;;;;5050336;28;20098;-63
2022/08/14 08:31:49;;;;;;;7.43;6.63;;;;;;;;;;5049852;28;20106;-63
2022/08/14 08:34:15;;;;;;;;;;;;;;;;;;5031787;28;20124;-63
2022/08/14 08:36:41;;;;;;;8.10;7.00;;;;;;;;;;5050464;28;20011;-63
2022/08/14 08:39:07;;;;;;;7.47;6.68;;;;;;;;;;5052368;28;20709;-63
2022/08/14 08:41:40;;;;;;;7.53;6.75;;;;;;;;;;5050232;28;20121;-63
2022/08/14 08:44:06;;;;;;;7.15;6.53;;;;;;;;;;5048778;28;20041;-63
2022/08/14 08:46:32;;;;;;;7.40;6.70;;;;;;;;;;5048398;28;20037;-63
2022/08/14 08:48:58;;;;;;;10.43;6.53;;;;;;;;;;5049282;28;20041;-63
2022/08/14 08:51:24;;;;;;;10.07;7.28;;;;;;;;;;5053067;28;20049;-63
2022/08/14 08:54:04;;;;;;;7.78;6.78;;;;;;;;;;5045605;28;20029;-63
2022/08/14 08:56:36;;;;;;;8.90;7.22;;;;;;;;;;5046570;28;20036;-63
2022/08/14 08:59:02;;;;;;;9.32;6.85;;;;;;;;;;5037485;28;20038;-63
2022/08/14 09:01:31;;;;;;;7.30;6.70;;;;;;;;;;5050262;28;20119;-63
2022/08/14 09:04:01;;;;;;;7.30;6.60;;;;;;;;;;5052304;28;20041;-63
2022/08/14 09:06:27;;;;;;;7.00;6.22;;;;;;;;;;5049782;28;20132;-61
2022/08/14 09:08:53;;;;;;;9.25;7.13;;;;;;;;;;5049968;28;20116;-61
2022/08/14 09:11:23;;;;;;;7.47;6.43;;;;;;;;;;5050634;28;20487;-61
2022/08/14 09:13:53;;;;;;;8.63;6.85;;;;;;;;;;5033624;28;20086;-61
2022/08/14 09:16:23;;;;;;;7.53;6.82;;;;;;;;;;5047219;28;20044;-61
2022/08/14 09:18:49;;;;;;;;;;;;;;;;;;5047047;28;20044;-61
2022/08/14 09:21:17;;;;;;;7.50;6.80;;;;;;;;;;5041910;28;19920;-61
2022/08/14 09:23:43;;;;;;;8.60;6.82;;;;;;;;;;5048689;28;20116;-61
2022/08/14 09:26:09;;;;;;;8.57;6.60;;;;;;;;;;5047802;28;20375;-60
2022/08/14 09:28:35;;;;;;;8.30;6.75;;;;;;;;;;5051589;28;20033;-61
2022/08/14 09:31:01;;;;;;;8.00;7.20;;;;;;;;;;5052864;28;20029;-61
2022/08/14 09:33:46;;;;;;;7.90;7.20;;;;;;;;;;5052634;28;20068;-61
2022/08/14 09:36:12;;;;;;;7.63;6.68;;;;;;;;;;5031591;28;20056;-61
2022/08/14 09:38:42;;;;;;;8.23;6.85;;;;;;;;;;5049599;28;20092;-61
2022/08/14 09:41:27;;;;;;;8.60;6.88;;;;;;;;;;5050776;28;20482;-61
2022/08/14 09:43:53;;;;;;;8.50;6.80;;;;;;;;;;5049905;28;20037;-61
2022/08/14 09:46:20;;;;;;;7.43;6.72;;;;;;;;;;5041181;28;20036;-61
2022/08/14 09:48:47;;;;;;;8.07;7.13;;;;;;;;;;5062625;22;20041;-63
2022/08/14 09:51:24;;;;;;;7.85;6.97;;;;;;;;;;5027109;28;20037;-64
2022/08/14 09:53:59;;;;;;;7.38;6.68;;;;;;;;;;5027892;28;20518;-64
2022/08/14 09:56:25;;;;;;;8.93;6.78;;;;;;;;;;5033657;28;20083;-64
2022/08/14 09:59:13;;;;;;;7.70;6.95;;;;;;;;;;5105184;27;20397;-62
2022/08/14 10:01:39;;;;;;;7.30;6.60;;;;;;;;;;5081590;28;20037;-62
2022/08/14 10:04:19;;;;;;;7.18;6.47;;;;;;;;;;5085236;28;20132;-61
2022/08/14 10:06:45;;;;;;;;;;;;;;;;;;5081815;28;20056;-61
2022/08/14 10:09:11;;;;;;;7.65;6.60;;;;;;;;;;5084944;28;20355;-62
2022/08/14 10:11:38;;;;;;;7.50;6.80;;;;;;;;;;5095390;28;20044;-62
2022/08/14 10:14:16;;;;;;;9.70;7.20;;;;;;;;;;5078079;28;20037;-63
2022/08/14 10:16:44;;;;;;;7.78;6.82;;;;;;;;;;5072719;28;20082;-63
2022/08/14 10:19:12;;;;;;;8.43;7.57;;;;;;;;;;5076598;28;20055;-64
2022/08/14 10:21:40;;;;;;;8.40;7.03;;;;;;;;;;5083622;28;20032;-65
2022/08/14 10:24:09;;;;;;;7.50;6.88;;;;;;;;;;5085907;28;20185;-64
2022/08/14 10:26:35;;;;;;;9.38;7.43;;;;;;;;;;5083843;28;20032;-65
2022/08/14 10:29:05;;;;;;;7.60;6.82;;;;;;;;;;5099293;28;20472;-64
2022/08/14 10:31:33;;;;;;;;;;;;;;;;;;5078296;28;20040;-64
2022/08/14 10:33:59;;;;;;;7.50;6.80;;;;;;;;;;5086992;28;19969;-64
2022/08/14 10:36:31;;;;;;;7.55;6.85;;;;;;;;;;5086147;28;20033;-64
2022/08/14 10:38:57;;;;;;;7.10;6.43;;;;;;;;;;5085640;28;20079;-64
2022/08/14 10:41:34;;;;;;;6.85;6.22;;;;;;;;;;5080393;28;20098;-64
2022/08/14 10:44:08;;;;;;;6.95;6.10;;;;;;;;;;5078163;28;20071;-64
2022/08/14 10:46:51;;;;;;;6.95;6.25;;;;;;;;;;5088303;28;20499;-64
2022/08/14 10:49:35;;;;;;;7.07;6.20;;;;;;;;;;5085091;28;20505;-64
2022/08/14 10:52:07;;;;;;;8.27;6.25;;;;;;;;;;5088172;28;20040;-64
2022/08/14 10:54:36;;;;;;;7.10;6.40;;;;;;;;;;5088707;28;20456;-64
2022/08/14 10:57:14;;;;;;;6.70;6.07;;;;;;;;;;5087781;28;20040;-64
2022/08/14 10:59:41;;;;;;;6.70;6.05;;;;;;;;;;5092502;28;20032;-65
2022/08/14 11:02:38;;;;;;;7.32;6.05;;;;;;;;;;5092389;28;20396;-64
2022/08/14 11:05:16;;;;;;;6.93;5.90;;;;;;;;;;5067800;28;20116;-64
2022/08/14 11:08:03;;;;;;;6.85;6.18;;;;;;;;;;5082400;28;20036;-64
2022/08/14 11:10:38;;;;;;;7.15;6.10;;;;;;;;;;5074008;28;20562;-64
2022/08/14 11:13:04;;;;;;;6.72;5.88;;;;;;;;;;5080334;28;20512;-64
2022/08/14 11:15:30;;;;;;;6.93;6.03;;;;;;;;;;5078824;28;20041;-65
2022/08/14 11:17:56;;;;;;;6.72;6.13;;;;;;;;;;5067145;28;20091;-64
2022/08/14 11:20:23;;;;;;;7.85;6.13;;;;;;;;;;5071817;28;20041;-64
2022/08/14 11:22:53;;;;;;;6.75;6.05;;;;;;;;;;5067568;28;20041;-64
2022/08/14 11:25:22;;;;;;;7.80;6.38;;;;;;;;;;5068151;28;20119;-65
2022/08/14 11:27:49;;;;;;;6.00;5.50;;;;;;;;;;5066576;28;20435;-63
2022/08/14 11:30:17;;;;;;;6.53;5.70;;;;;;;;;;5065689;28;20111;-64
2022/08/14 11:32:44;;;;;;;6.45;5.88;;;;;;;;;;5068267;28;20493;-64
2022/08/14 11:35:11;;;;;;;6.72;6.07;;;;;;;;;;5072592;28;20049;-64
2022/08/14 11:37:38;;;;;;;6.80;6.20;;;;;;;;;;5073264;28;20132;-64
2022/08/14 11:40:04;;;;;;;7.00;5.95;;;;;;;;;;5054330;28;20041;-64
2022/08/14 11:42:31;;;;;;;6.60;6.00;;;;;;;;;;5052342;28;20056;-63
2022/08/14 11:44:58;;;;;;;8.40;5.90;;;;;;;;;;5069144;28;20048;-64
2022/08/14 11:47:24;;;;;;;6.13;5.63;;;;;;;;;;5073512;28;20108;-64
2022/08/14 11:49:52;;;;;;;6.32;5.65;;;;;;;;;;5073708;28;20055;-64
2022/08/14 11:52:18;;;;;;;7.55;5.30;;;;;;;;;;5073480;28;20040;-64
2022/08/14 11:54:45;;;;;;;6.10;5.50;;;;;;;;;;5072807;28;20516;-65
2022/08/14 11:57:15;;;;;;;6.00;5.40;;;;;;;;;;5055366;28;20041;-64
2022/08/14 11:59:41;;;;;;;5.55;5.05;;;;;;;;;;5072981;28;20032;-65
2022/08/14 12:02:10;;;;;;;6.35;5.20;;;;;;;;;;5073044;28;20080;-65
2022/08/14 12:04:47;;;;;;;5.70;5.05;;;;;;;;;;5073759;28;20039;-65
2022/08/14 12:07:13;;;;;;;5.72;5.13;;;;;;;;;;5073203;28;20051;-64
2022/08/14 12:09:39;;;;;;;5.63;5.10;;;;;;;;;;5073153;28;20456;-65
2022/08/14 12:12:15;;;;;;;5.85;5.00;;;;;;;;;;5068097;28;20409;-65
2022/08/14 12:14:48;;;;;;;5.57;5.00;;;;;;;;;;5066530;28;20053;-64
2022/08/14 12:17:14;;;;;;;5.55;5.05;;;;;;;;;;5071898;28;20041;-65
2022/08/14 12:19:45;;;;;;;5.18;4.70;;;;;;;;;;5073000;28;20064;-65
2022/08/14 12:22:11;;;;;;;5.78;5.18;;;;;;;;;;5071469;28;20066;-65
2022/08/14 12:24:37;;;;;;;6.13;5.53;;;;;;;;;;5070582;28;20037;-64
2022/08/14 12:27:03;;;;;;;5.55;5.03;;;;;;;;;;5073281;28;20044;-65
2022/08/14 12:29:29;;;;;;;5.30;4.80;;;;;;;;;;5064844;28;20568;-65
2022/08/14 12:31:59;;;;;;;5.30;4.85;;;;;;;;;;5052641;28;20048;-65
2022/08/14 12:34:30;;;;;;;5.30;4.80;;;;;;;;;;5053078;28;20072;-65
2022/08/14 12:37:04;;;;;;;4.90;4.50;;;;;;;;;;5052873;28;20053;-65
2022/08/14 12:39:32;;;;;;;5.13;4.63;;;;;;;;;;5061291;28;20047;-64
2022/08/14 12:42:05;;;;;;;5.30;4.75;;;;;;;;;;5072803;28;20398;-65
2022/08/14 12:44:32;;;;;;;4.68;4.28;;;;;;;;;;5072768;28;20060;-65
2022/08/14 12:47:02;;;;;;;5.40;4.57;;;;;;;;;;5062574;28;20088;-65
2022/08/14 12:49:28;;;;;;;6.15;5.03;;;;;;;;;;5052373;28;20124;-64
2022/08/14 12:51:59;;;;;;;6.03;4.20;;;;;;;;;;5051261;28;20045;-65
2022/08/14 12:54:25;;;;;;;5.28;4.65;;;;;;;;;;5069573;28;20037;-64
2022/08/14 12:57:02;;;;;;;6.38;5.60;;;;;;;;;;5071353;28;20390;-65
2022/08/14 12:59:34;;;;;;;5.25;4.75;;;;;;;;;;5062777;28;20042;-65
2022/08/14 13:02:01;;;;;;;6.90;4.97;;;;;;;;;;5071400;28;20109;-64
2022/08/14 13:04:30;;;;;;;6.90;4.60;;;;;;;;;;5062718;28;20119;-64
2022/08/14 13:07:03;;;;;;;6.93;5.03;;;;;;;;;;5071651;28;20041;-64
2022/08/14 13:09:30;;;;;;;6.18;4.75;;;;;;;;;;5071515;28;20401;-65
2022/08/14 13:11:56;;;;;;;5.30;4.80;;;;;;;;;;5072230;28;20041;-65
2022/08/14 13:14:26;;;;;;;5.38;4.57;;;;;;;;;;5072241;28;20504;-64
2022/08/14 13:16:56;;;;;;;6.50;4.90;;;;;;;;;;5071866;28;20109;-64
2022/08/14 13:19:22;;;;;;;6.75;5.32;;;;;;;;;;5071916;28;20093;-64
2022/08/14 13:21:50;;;;;;;7.03;5.20;;;;;;;;;;5061034;28;20048;-65
2022/08/14 13:24:18;;;;;;;7.13;5.40;;;;;;;;;;5068801;28;20037;-64
2022/08/14 13:26:45;;;;;;;6.20;5.60;;;;;;;;;;5069205;28;20078;-64
2022/08/14 13:29:11;;;;;;;5.57;5.03;;;;;;;;;;5071057;28;20051;-64
2022/08/14 13:31:40;;;;;;;6.18;5.57;;;;;;;;;;5071882;28;20047;-64
2022/08/14 13:34:06;;;;;;;5.88;5.13;;;;;;;;;;5071536;28;20040;-65
2022/08/14 13:36:33;;;;;;;6.57;5.07;;;;;;;;;;5070287;28;20083;-66
2022/08/14 13:38:59;;;;;;;7.65;5.70;;;;;;;;;;5068099;28;20045;-65
2022/08/14 13:41:28;;;;;;;6.20;5.30;;;;;;;;;;5071728;28;20062;-65
2022/08/14 13:43:55;;;;;;;5.68;5.13;;;;;;;;;;5071202;28;20051;-65
2022/08/14 13:46:21;;;;;;;6.10;5.28;;;;;;;;;;5072012;28;20103;-66
2022/08/14 13:48:50;;;;;;;6.88;5.80;;;;;;;;;;5071213;28;20040;-65
2022/08/14 13:51:16;;;;;;;6.95;5.60;;;;;;;;;;5069471;28;20461;-65
2022/08/14 13:53:46;;;;;;;6.95;5.40;;;;;;;;;;5071489;28;20071;-65
2022/08/14 13:56:13;;;;;;;5.75;5.15;;;;;;;;;;5070448;28;20513;-65
2022/08/14 13:58:42;;;;;;;6.80;4.70;;;;;;;;;;5067200;28;20136;-65
2022/08/14 14:01:10;;;;;;;5.90;5.25;;;;;;;;;;5051577;28;20132;-65
2022/08/14 14:03:36;;;;;;;5.68;5.07;;;;;;;;;;5051282;28;20043;-64
2022/08/14 14:06:03;;;;;;;6.68;5.55;;;;;;;;;;5060115;28;20098;-64
2022/08/14 14:08:31;;;;;;;6.25;5.30;;;;;;;;;;5070451;28;20037;-65
2022/08/14 14:10:57;;;;;;;6.18;5.57;;;;;;;;;;5070585;28;20390;-65
2022/08/14 14:13:24;;;;;;;7.95;6.18;;;;;;;;;;5071274;28;20409;-64
2022/08/14 14:15:50;;;;;;;6.30;5.70;;;;;;;;;;5071254;28;20044;-64
2022/08/14 14:18:17;;;;;;;6.00;5.40;;;;;;;;;;5070845;28;20523;-65
2022/08/14 14:20:44;;;;;;;6.32;5.53;;;;;;;;;;5069008;28;20088;-65
2022/08/14 14:23:12;;;;;;;7.22;5.40;;;;;;;;;;5071171;28;20028;-65
2022/08/14 14:25:44;;;;;;;6.75;5.00;;;;;;;;;;5070575;28;20051;-65
2022/08/14 14:28:12;;;;;;;7.22;5.53;;;;;;;;;;5067400;28;20494;-65
2022/08/14 14:30:41;;;;;;;7.07;5.43;;;;;;;;;;5051320;28;20127;-65
2022/08/14 14:33:08;;;;;;;7.32;5.63;;;;;;;;;;5050749;28;20514;-64
2022/08/14 14:35:37;;;;;;;7.00;5.65;;;;;;;;;;5067621;28;20049;-64
2022/08/14 14:38:04;;;;;;;5.80;5.20;;;;;;;;;;5070410;28;20048;-65
2022/08/14 14:40:33;;;;;;;6.90;5.63;;;;;;;;;;5071181;28;20037;-65
2022/08/14 14:43:02;;;;;;;6.53;5.55;;;;;;;;;;5070708;28;20083;-64
2022/08/14 14:45:28;;;;;;;7.32;5.30;;;;;;;;;;5068480;28;20083;-65
2022/08/14 14:47:55;;;;;;;6.18;5.18;;;;;;;;;;5058367;28;20047;-65
2022/08/14 14:50:21;;;;;;;6.15;5.45;;;;;;;;;;5074282;28;20052;-65
2022/08/14 14:52:48;;;;;;;6.25;5.15;;;;;;;;;;5075016;28;20055;-65